Time;durP1;ratioP1;P1;durP2;ratioP2;P2;SDS_P1;SDS_P2;PMS_P1;PMS_P2;Temp;Humidity;BMP_temperature;BMP_pressure;BME280_temperature;BME280_humidity;BME280_pressure;Samples;Min_cycle;Max_cycle;Signal;HPM_P1;HPM_P2
2023/07/13 00:00:37;;;;;;;;;;;;;;;32.11;38.91;101221.94;5094541;28;19917;-49
2023/07/13 00:03:03;;;;;;;;;;;;;;;31.50;40.03;101212.75;5105065;28;19920;-50
2023/07/13 00:05:28;;;;;;;;;;;;;;;31.60;39.72;101214.34;5094109;28;19943;-48
2023/07/13 00:07:54;;;;;;;;;;;;;;;31.19;41.01;101219.31;5097822;28;19963;-50
2023/07/13 00:10:20;;;;;;;;;;;;;;;32.13;39.27;101225.19;5095133;28;19923;-53
2023/07/13 00:12:46;;;;;;;;;;;;;;;31.99;39.33;101222.66;5094230;28;19976;-50
2023/07/13 00:15:13;;;;;;;;;;;;;;;31.53;40.08;101219.56;5094170;28;19920;-50
2023/07/13 00:17:39;;;;;;;;;;;;;;;31.72;40.14;101220.00;5094293;28;19923;-56
2023/07/13 00:20:05;;;;;;;;;;;;;;;31.61;40.21;101221.50;5094321;28;19917;-53
2023/07/13 00:22:31;;;;;;;;;;;;;;;32.40;38.69;101223.91;5102862;28;19913;-49
2023/07/13 00:24:56;;;;;;;;;;;;;;;31.92;39.07;101222.38;5097731;28;19921;-53
2023/07/13 00:27:22;;;;;;;;;;;;;;;30.87;42.12;101202.94;5097671;28;19991;-52
2023/07/13 00:29:48;;;;;;;;;;;;;;;31.64;40.56;101208.97;5097726;28;19920;-52
2023/07/13 00:32:13;;;;;;;;;;;;;;;31.30;41.25;101209.53;5125657;28;19984;-49
2023/07/13 00:34:39;;;;;;;;;;;;;;;31.07;41.70;101202.56;5120154;28;19930;-56
2023/07/13 00:37:06;;;;;;;;;;;;;;;30.29;43.01;101208.53;5083347;28;19919;-50
2023/07/13 00:39:32;;;;;;;;;;;;;;;30.88;42.26;101218.34;5103895;28;19919;-48
2023/07/13 00:41:58;;;;;;;;;;;;;;;31.41;41.21;101223.03;5113559;28;19927;-51
2023/07/13 00:44:24;;;;;;;;;;;;;;;30.74;42.45;101217.69;5085922;28;19946;-51
2023/07/13 00:46:50;;;;;;;;;;;;;;;31.15;41.65;101226.63;5097166;28;19917;-52
2023/07/13 00:49:17;;;;;;;;;;;;;;;30.97;42.06;101221.13;5097235;28;19942;-50
2023/07/13 00:51:49;;;;;;;;;;;;;;;31.03;41.39;101222.56;5116602;28;19946;-49
2023/07/13 00:54:19;;;;;;;;;;;;;;;31.69;40.60;101222.59;5096829;28;19955;-49
2023/07/13 00:56:46;;;;;;;;;;;;;;;31.73;40.13;101226.31;5097495;28;19912;-49
2023/07/13 00:59:13;;;;;;;;;;;;;;;31.11;41.77;101218.16;5100580;28;19912;-52
2023/07/13 01:01:39;;;;;;;;;;;;;;;31.08;41.61;101224.34;5097321;28;19916;-55
2023/07/13 01:04:07;;;;;;;;;;;;;;;30.79;42.65;101225.00;5097928;28;19932;-50
2023/07/13 01:06:37;;;;;;;;;;;;;;;30.38;43.92;101227.06;5079662;28;19931;-51
2023/07/13 01:09:04;;;;;;;;;;;;;;;30.11;43.94;101235.25;5096578;28;19916;-50
2023/07/13 01:11:30;;;;;;;;;;;;;;;31.18;42.02;101240.56;5096755;28;20375;-50
2023/07/13 01:13:56;;;;;;;;;;;;;;;30.72;43.23;101239.28;5097717;28;19940;-52
2023/07/13 01:16:26;;;;;;;;;;;;;;;30.04;44.19;101235.72;5079148;28;19938;-53
2023/07/13 01:18:51;;;;;;;;;;;;;;;30.43;43.66;101241.50;5096794;28;19928;-48
2023/07/13 01:21:18;;;;;;;;;;;;;;;29.82;45.32;101239.34;5096626;28;19917;-52
2023/07/13 01:23:44;;;;;;;;;;;;;;;30.24;44.66;101238.22;5112739;28;19920;-54
2023/07/13 01:26:10;;;;;;;;;;;;;;;30.15;44.71;101239.00;5096582;28;19938;-53
2023/07/13 01:28:37;;;;;;;;;;;;;;;30.36;44.66;101235.66;5121648;28;19917;-52
2023/07/13 01:31:02;;;;;;;;;;;;;;;30.74;43.91;101231.50;5078990;28;19916;-52
2023/07/13 01:33:28;;;;;;;;;;;;;;;30.11;45.99;101229.75;5106420;28;19942;-53
2023/07/13 01:35:57;;;;;;;;;;;;;;;29.89;46.26;101217.63;5096488;28;19917;-53
2023/07/13 01:38:23;;;;;;;;;;;;;;;29.49;48.16;101231.38;5096247;28;19916;-49
2023/07/13 01:40:49;;;;;;;;;;;;;;;30.05;46.87;101240.09;5096380;28;19987;-51
2023/07/13 01:43:15;;;;;;;;;;;;;;;30.05;46.25;101242.06;5102598;28;19920;-52
2023/07/13 01:45:40;;;;;;;;;;;;;;;29.88;46.88;101237.25;5096289;28;19926;-54
2023/07/13 01:48:09;;;;;;;;;;;;;;;29.86;47.81;101237.56;5112302;28;19916;-52
2023/07/13 01:50:34;;;;;;;;;;;;;;;29.46;49.16;101234.75;5096401;28;19913;-55
2023/07/13 01:53:00;;;;;;;;;;;;;;;29.04;50.78;101230.25;5088199;28;19928;-55
2023/07/13 01:55:25;;;;;;;;;;;;;;;29.25;50.87;101224.22;5087398;28;19944;-53
2023/07/13 01:57:51;;;;;;;;;;;;;;;28.63;52.78;101229.22;5097983;28;19925;-49
2023/07/13 02:00:17;;;;;;;;;;;;;;;28.73;53.28;101233.69;5078468;28;19922;-52
2023/07/13 02:02:45;;;;;;;;;;;;;;;29.40;50.70;101247.03;5112034;28;19951;-54
2023/07/13 02:05:11;;;;;;;;;;;;;;;29.84;49.65;101245.34;5092578;28;19927;-52
2023/07/13 02:07:37;;;;;;;;;;;;;;;29.80;48.92;101244.34;5111932;28;19912;-53
2023/07/13 02:10:04;;;;;;;;;;;;;;;30.23;48.54;101245.69;5099294;28;19946;-51
2023/07/13 02:12:30;;;;;;;;;;;;;;;30.21;47.53;101245.19;5110233;28;19919;-54
2023/07/13 02:14:55;;;;;;;;;;;;;;;29.85;49.30;101254.41;5073928;28;19916;-54
2023/07/13 02:17:21;;;;;;;;;;;;;;;29.13;51.96;101240.53;5097697;28;19963;-54
2023/07/13 02:19:46;;;;;;;;;;;;;;;30.08;49.50;101241.41;5078005;28;19917;-52
2023/07/13 02:22:12;;;;;;;;;;;;;;;29.48;49.97;101247.09;5077691;28;19916;-51
2023/07/13 02:24:38;;;;;;;;;;;;;;;29.18;52.23;101243.16;5119940;28;19921;-51
2023/07/13 02:27:04;;;;;;;;;;;;;;;29.71;50.88;101246.25;5075406;28;19916;-51
2023/07/13 02:29:30;;;;;;;;;;;;;;;28.87;53.71;101238.38;5095453;28;19938;-52
2023/07/13 02:31:56;;;;;;;;;;;;;;;30.04;49.86;101251.47;5095179;28;19976;-50
2023/07/13 02:34:23;;;;;;;;;;;;;;;29.65;51.77;101251.09;5095761;28;19968;-48
2023/07/13 02:36:48;;;;;;;;;;;;;;;30.09;50.18;101243.03;5107976;28;19927;-50
2023/07/13 02:39:14;;;;;;;;;;;;;;;30.09;48.89;101254.06;5095348;28;19916;-48
2023/07/13 02:41:41;;;;;;;;;;;;;;;30.13;49.27;101246.78;5077910;28;19916;-52
2023/07/13 02:44:08;;;;;;;;;;;;;;;29.68;51.21;101246.88;5101852;28;19928;-51
2023/07/13 02:46:35;;;;;;;;;;;;;;;29.56;51.00;101236.44;5095190;28;19956;-51
2023/07/13 02:49:00;;;;;;;;;;;;;;;29.62;52.10;101241.50;5077564;28;20029;-52
2023/07/13 02:51:26;;;;;;;;;;;;;;;30.45;48.87;101247.53;5094917;28;19916;-52
2023/07/13 02:53:51;;;;;;;;;;;;;;;29.39;52.09;101248.16;5104986;28;19919;-52
2023/07/13 02:56:17;;;;;;;;;;;;;;;29.76;51.16;101255.19;5079427;28;19924;-55
2023/07/13 02:58:43;;;;;;;;;;;;;;;30.37;49.82;101251.06;5111279;28;19963;-52
2023/07/13 03:01:09;;;;;;;;;;;;;;;30.65;49.38;101252.78;5110520;28;19916;-53
2023/07/13 03:03:35;;;;;;;;;;;;;;;29.62;50.88;101249.78;5101960;28;19927;-52
2023/07/13 03:06:03;;;;;;;;;;;;;;;30.05;49.96;101256.63;5079396;28;19920;-55
2023/07/13 03:08:33;;;;;;;;;;;;;;;30.46;49.54;101260.19;5084372;28;19916;-53
2023/07/13 03:11:03;;;;;;;;;;;;;;;30.46;48.77;101251.91;5111878;28;19912;-51
2023/07/13 03:13:31;;;;;;;;;;;;;;;30.65;48.36;101261.84;5082763;28;19979;-52
2023/07/13 03:15:57;;;;;;;;;;;;;;;30.30;49.49;101254.28;5111224;28;19916;-51
2023/07/13 03:18:23;;;;;;;;;;;;;;;29.88;51.56;101254.59;5112406;28;19963;-52
2023/07/13 03:20:52;;;;;;;;;;;;;;;29.83;51.60;101257.50;5110775;28;19917;-52
2023/07/13 03:23:18;;;;;;;;;;;;;;;29.47;52.75;101253.75;5097581;28;20066;-52
2023/07/13 03:25:44;;;;;;;;;;;;;;;29.37;53.96;101262.22;5100124;28;19920;-55
2023/07/13 03:28:13;;;;;;;;;;;;;;;30.18;51.56;101263.16;5113153;28;19951;-54
2023/07/13 03:30:40;;;;;;;;;;;;;;;29.71;54.04;101262.78;5094549;28;19920;-53
2023/07/13 03:33:06;;;;;;;;;;;;;;;30.36;51.47;101263.22;5080751;28;19947;-53
2023/07/13 03:35:32;;;;;;;;;;;;;;;31.31;47.12;101269.19;5107522;28;19916;-52
2023/07/13 03:37:58;;;;;;;;;;;;;;;30.09;50.58;101269.78;5110718;28;19942;-52
2023/07/13 03:40:25;;;;;;;;;;;;;;;30.25;51.34;101267.44;5110724;28;19916;-54
2023/07/13 03:42:50;;;;;;;;;;;;;;;30.72;49.01;101267.72;5114959;28;19991;-51
2023/07/13 03:45:17;;;;;;;;;;;;;;;30.07;51.27;101274.81;5085882;28;19917;-53
2023/07/13 03:47:43;;;;;;;;;;;;;;;30.28;50.88;101284.13;5110191;28;19927;-50
2023/07/13 03:50:08;;;;;;;;;;;;;;;30.15;51.35;101285.06;5060468;28;19916;-54
2023/07/13 03:52:34;;;;;;;;;;;;;;;29.68;54.79;101285.47;5104744;28;19919;-50
2023/07/13 03:55:00;;;;;;;;;;;;;;;29.53;55.86;101286.66;5094496;28;19928;-53
2023/07/13 03:57:25;;;;;;;;;;;;;;;29.79;54.35;101288.75;5097484;28;19938;-49
2023/07/13 03:59:51;;;;;;;;;;;;;;;30.20;52.33;101293.19;5098321;28;19925;-50
2023/07/13 04:02:17;;;;;;;;;;;;;;;29.90;53.08;101296.44;5098011;28;19923;-51
2023/07/13 04:04:42;;;;;;;;;;;;;;;30.70;51.22;101288.47;5088734;28;19921;-52
2023/07/13 04:07:08;;;;;;;;;;;;;;;30.04;52.89;101296.38;5104800;28;20469;-48
2023/07/13 04:09:33;;;;;;;;;;;;;;;31.36;49.05;101298.59;5098168;28;19922;-50
2023/07/13 04:11:59;;;;;;;;;;;;;;;31.29;48.97;101295.53;5103577;28;19923;-51
2023/07/13 04:14:26;;;;;;;;;;;;;;;31.59;47.85;101313.00;5114412;28;19923;-53
2023/07/13 04:16:54;;;;;;;;;;;;;;;31.00;48.94;101305.22;5105755;28;20382;-50
2023/07/13 04:19:19;;;;;;;;;;;;;;;30.96;49.76;101307.84;5098052;28;19927;-54
2023/07/13 04:21:45;;;;;;;;;;;;;;;30.45;50.76;101310.16;5097747;28;19917;-54
2023/07/13 04:24:11;;;;;;;;;;;;;;;31.31;48.90;101309.81;5102204;28;19920;-52
2023/07/13 04:26:38;;;;;;;;;;;;;;;30.63;50.95;101313.78;5103743;28;19948;-53
2023/07/13 04:29:03;;;;;;;;;;;;;;;29.81;53.93;101319.56;5080519;28;19946;-54
2023/07/13 04:31:29;;;;;;;;;;;;;;;30.19;53.00;101324.66;5097512;28;19987;-52
2023/07/13 04:33:54;;;;;;;;;;;;;;;30.57;51.81;101318.63;5100857;28;19923;-55
2023/07/13 04:36:20;;;;;;;;;;;;;;;30.30;53.42;101323.25;5104259;28;19923;-51
2023/07/13 04:38:45;;;;;;;;;;;;;;;29.71;55.12;101321.47;5109853;28;19959;-53
2023/07/13 04:41:12;;;;;;;;;;;;;;;30.03;54.08;101327.84;5097289;28;19921;-55
2023/07/13 04:43:38;;;;;;;;;;;;;;;29.60;57.03;101318.16;5108106;28;19916;-54
2023/07/13 04:46:05;;;;;;;;;;;;;;;30.55;52.78;101329.16;5105941;28;19920;-53
2023/07/13 04:48:30;;;;;;;;;;;;;;;30.71;51.64;101329.56;5083998;28;19916;-52
2023/07/13 04:50:57;;;;;;;;;;;;;;;30.56;53.19;101328.03;5072375;28;19913;-52
2023/07/13 04:53:23;;;;;;;;;;;;;;;29.68;56.47;101327.63;5098598;28;20114;-50
2023/07/13 04:55:49;;;;;;;;;;;;;;;29.66;57.66;101329.06;5091488;28;19943;-53
2023/07/13 04:58:14;;;;;;;;;;;;;;;29.58;58.72;101325.94;5096829;28;19916;-50
2023/07/13 05:00:40;;;;;;;;;;;;;;;29.47;59.14;101332.81;5092662;28;20000;-52
2023/07/13 05:03:06;;;;;;;;;;;;;;;30.19;57.61;101330.97;5098182;28;19916;-49
2023/07/13 05:05:31;;;;;;;;;;;;;;;29.88;57.75;101334.53;5100453;28;19927;-48
2023/07/13 05:07:57;;;;;;;;;;;;;;;29.41;61.74;101323.03;5074145;28;20011;-49
2023/07/13 05:10:23;;;;;;;;;;;;;;;30.33;55.66;101332.84;5086412;28;19917;-52
2023/07/13 05:12:48;;;;;;;;;;;;;;;29.61;59.53;101339.09;5099693;28;19917;-53
2023/07/13 05:15:14;;;;;;;;;;;;;;;30.71;55.31;101348.91;5095101;28;19920;-53
2023/07/13 05:17:40;;;;;;;;;;;;;;;30.83;53.90;101347.44;5098104;28;19995;-53
2023/07/13 05:20:07;;;;;;;;;;;;;;;30.67;55.40;101345.13;5078997;28;19996;-51
2023/07/13 05:22:32;;;;;;;;;;;;;;;29.98;59.99;101338.16;5096926;28;19917;-48
2023/07/13 05:24:57;;;;;;;;;;;;;;;30.03;57.65;101344.38;5101944;28;19930;-54
2023/07/13 05:27:23;;;;;;;;;;;;;;;30.31;56.95;101344.19;5088939;28;19996;-48
2023/07/13 05:29:49;;;;;;;;;;;;;;;30.70;56.61;101349.22;5103375;28;19927;-51
2023/07/13 05:32:15;;;;;;;;;;;;;;;30.25;57.75;101350.19;5095082;28;19947;-52
2023/07/13 05:34:40;;;;;;;;;;;;;;;30.74;56.26;101356.53;5108952;28;19920;-55
2023/07/13 05:37:06;;;;;;;;;;;;;;;30.97;55.43;101359.16;5112376;28;19928;-49
2023/07/13 05:39:31;;;;;;;;;;;;;;;30.22;59.77;101356.31;5078883;28;19923;-50
2023/07/13 05:41:57;;;;;;;;;;;;;;;30.33;59.53;101358.50;5097096;28;19959;-49
2023/07/13 05:44:22;;;;;;;;;;;;;;;29.97;61.28;101366.84;5102949;28;19921;-50
2023/07/13 05:46:48;;;;;;;;;;;;;;;30.09;60.57;101367.13;5105851;28;19920;-50
2023/07/13 05:49:13;;;;;;;;;;;;;;;30.55;58.75;101378.03;5088146;28;19924;-52
2023/07/13 05:51:39;;;;;;;;;;;;;;;31.73;54.44;101375.59;5090908;28;19920;-54
2023/07/13 05:54:04;;;;;;;;;;;;;;;31.15;57.67;101370.25;5092944;28;19924;-53
2023/07/13 05:56:30;;;;;;;;;;;;;;;31.55;55.34;101378.38;5084269;28;19955;-50
2023/07/13 05:58:56;;;;;;;;;;;;;;;30.78;57.19;101373.25;5087250;28;19920;-52
2023/07/13 06:01:23;;;;;;;;;;;;;;;30.70;58.42;101382.31;5094629;28;19916;-51
2023/07/13 06:03:48;;;;;;;;;;;;;;;31.79;55.34;101382.59;5095200;28;19924;-52
2023/07/13 06:06:14;;;;;;;;;;;;;;;30.76;57.83;101379.09;5098156;28;19992;-51
2023/07/13 06:08:40;;;;;;;;;;;;;;;32.56;51.76;101390.19;5093567;28;19921;-55
2023/07/13 06:11:07;;;;;;;;;;;;;;;31.24;56.20;101392.34;5091784;28;19928;-52
2023/07/13 06:13:33;;;;;;;;;;;;;;;30.96;57.87;101396.22;5103017;28;19916;-54
2023/07/13 06:15:59;;;;;;;;;;;;;;;31.27;56.98;101392.53;5095260;28;19942;-53
2023/07/13 06:18:25;;;;;;;;;;;;;;;31.31;57.14;101398.22;5092499;28;20005;-53
2023/07/13 06:20:51;;;;;;;;;;;;;;;31.17;56.80;101403.88;5095244;28;19923;-52
2023/07/13 06:23:16;;;;;;;;;;;;;;;31.00;56.43;101408.22;5095205;28;19927;-50
2023/07/13 06:25:43;;;;;;;;;;;;;;;31.00;56.97;101407.41;5100827;28;19956;-55
2023/07/13 06:28:09;;;;;;;;;;;;;;;32.19;53.29;101418.31;5091884;28;19988;-50
2023/07/13 06:30:34;;;;;;;;;;;;;;;32.20;51.69;101416.38;5082540;28;19927;-53
2023/07/13 06:32:59;;;;;;;;;;;;;;;31.05;56.63;101424.63;5094777;28;19928;-51
2023/07/13 06:35:25;;;;;;;;;;;;;;;31.90;54.32;101419.03;5098739;28;19970;-53
2023/07/13 06:37:51;;;;;;;;;;;;;;;32.02;53.92;101423.88;5109499;28;19916;-52
2023/07/13 06:40:17;;;;;;;;;;;;;;;31.97;53.38;101415.75;5094333;28;19917;-49
2023/07/13 06:42:42;;;;;;;;;;;;;;;32.59;51.06;101427.50;5095116;28;19924;-51
2023/07/13 06:45:08;;;;;;;;;;;;;;;32.23;52.00;101418.47;5093671;28;19925;-50
2023/07/13 06:47:33;;;;;;;;;;;;;;;32.31;51.82;101427.91;5095044;28;19943;-53
2023/07/13 06:49:59;;;;;;;;;;;;;;;32.55;51.32;101429.31;5093658;28;19920;-49
2023/07/13 06:52:25;;;;;;;;;;;;;;;32.71;49.63;101426.78;5093057;28;19996;-49
2023/07/13 06:54:51;;;;;;;;;;;;;;;33.94;48.67;101434.22;5093195;28;19920;-51
2023/07/13 06:57:16;;;;;;;;;;;;;;;32.30;51.25;101429.84;5080891;28;19916;-52
2023/07/13 06:59:42;;;;;;;;;;;;;;;32.78;50.60;101437.34;5093597;28;19916;-50
2023/07/13 07:02:09;;;;;;;;;;;;;;;32.45;50.93;101431.28;5095143;28;19924;-50
2023/07/13 07:04:34;;;;;;;;;;;;;;;32.97;48.52;101440.50;5095200;28;19905;-51
2023/07/13 07:07:00;;;;;;;;;;;;;;;32.56;50.88;101442.78;5100513;28;19916;-51
2023/07/13 07:09:25;;;;;;;;;;;;;;;33.38;48.81;101451.97;5104543;28;19916;-53
2023/07/13 07:11:51;;;;;;;;;;;;;;;32.99;49.92;101441.00;5095063;28;19916;-52
2023/07/13 07:14:17;;;;;;;;;;;;;;;33.60;47.26;101447.28;5094750;28;19976;-52
2023/07/13 07:16:42;;;;;;;;;;;;;;;33.47;47.24;101446.41;5099301;28;19924;-53
2023/07/13 07:19:08;;;;;;;;;;;;;;;33.43;47.27;101442.66;5094620;28;19916;-51
2023/07/13 07:21:33;;;;;;;;;;;;;;;34.43;45.70;101457.69;5094849;28;19920;-51
2023/07/13 07:23:59;;;;;;;;;;;;;;;33.17;48.20;101455.53;5110663;28;19943;-52
2023/07/13 07:26:25;;;;;;;;;;;;;;;33.76;46.76;101461.31;5085703;28;19942;-51
2023/07/13 07:28:51;;;;;;;;;;;;;;;33.94;46.68;101450.84;5098111;28;19921;-49
2023/07/13 07:31:16;;;;;;;;;;;;;;;34.02;45.91;101457.50;5097824;28;19988;-52
2023/07/13 07:33:42;;;;;;;;;;;;;;;33.23;47.37;101455.34;5098552;28;19917;-53
2023/07/13 07:36:08;;;;;;;;;;;;;;;34.23;45.71;101449.09;5104318;28;19917;-55
2023/07/13 07:38:35;;;;;;;;;;;;;;;34.17;45.97;101442.16;5081233;28;19962;-52
2023/07/13 07:41:02;;;;;;;;;;;;;;;34.18;45.30;101444.63;5098376;28;19917;-54
2023/07/13 07:43:28;;;;;;;;;;;;;;;33.47;46.94;101451.94;5098030;28;19924;-54
2023/07/13 07:45:53;;;;;;;;;;;;;;;33.66;47.22;101448.69;5105985;28;19919;-50
2023/07/13 07:48:19;;;;;;;;;;;;;;;34.45;45.63;101442.34;5098624;28;19945;-49
2023/07/13 07:50:44;;;;;;;;;;;;;;;35.37;43.73;101446.81;5098304;28;19916;-52
2023/07/13 07:53:10;;;;;;;;;;;;;;;35.65;42.66;101448.84;5080354;28;19920;-53
2023/07/13 07:55:37;;;;;;;;;;;;;;;34.22;43.99;101449.47;5102917;28;19923;-53
2023/07/13 07:58:03;;;;;;;;;;;;;;;34.40;44.60;101453.66;5099150;28;19912;-50
2023/07/13 08:00:30;;;;;;;;;;;;;;;35.01;42.71;101462.41;5098019;28;19923;-51
2023/07/13 08:02:56;;;;;;;;;;;;;;;35.53;42.26;101454.44;5096241;28;19916;-54
2023/07/13 08:05:21;;;;;;;;;;;;;;;34.44;42.77;101459.31;5098870;28;19932;-53
2023/07/13 08:07:47;;;;;;;;;;;;;;;34.50;42.63;101462.72;5080429;28;19985;-51
2023/07/13 08:10:12;;;;;;;;;;;;;;;34.20;42.66;101460.91;5097687;28;19943;-49
2023/07/13 08:12:39;;;;;;;;;;;;;;;33.89;42.60;101451.09;5097694;28;19917;-53
2023/07/13 08:15:05;;;;;;;;;;;;;;;34.74;41.63;101454.41;5098047;28;19921;-52
2023/07/13 08:17:31;;;;;;;;;;;;;;;34.66;40.83;101460.91;5104701;28;19984;-54
2023/07/13 08:19:56;;;;;;;;;;;;;;;35.71;39.27;101466.91;5097739;28;19917;-53
2023/07/13 08:22:22;;;;;;;;;;;;;;;34.75;40.04;101464.34;5097710;28;20003;-55
2023/07/13 08:24:55;;;;;;;;;;;;;;;34.87;39.69;101460.75;5096988;28;19920;-53
2023/07/13 08:27:20;;;;;;;;;;;;;;;34.25;40.53;101457.91;5102838;28;19935;-53
2023/07/13 08:29:47;;;;;;;;;;;;;;;35.16;39.27;101460.88;5097569;28;19916;-54
2023/07/13 08:32:13;;;;;;;;;;;;;;;36.35;37.62;101463.44;5079967;28;19991;-54
2023/07/13 08:34:39;;;;;;;;;;;;;;;36.23;36.78;101453.19;5097632;28;19927;-54
2023/07/13 08:37:06;;;;;;;;;;;;;;;36.71;35.79;101463.56;5098265;28;19920;-49
2023/07/13 08:39:32;;;;;;;;;;;;;;;36.69;35.30;101469.50;5097262;28;20251;-51
2023/07/13 08:42:00;;;;;;;;;;;;;;;35.12;37.15;101459.97;5096555;28;19916;-51
2023/07/13 08:44:46;;;;;;;;;;;;;;;35.29;37.18;101468.06;5096644;28;19942;-50
2023/07/13 08:47:13;;;;;;;;;;;;;;;34.58;37.54;101465.41;5106453;28;19916;-51
2023/07/13 08:49:39;;;;;;;;;;;;;;;36.58;38.05;101465.63;5099334;28;19992;-53
2023/07/13 08:52:11;;;;;;;;;;;;;;;35.74;42.60;101471.75;5097215;28;19900;-54
2023/07/13 08:54:41;;;;;;;;;;;;;;;35.52;44.21;101470.31;5097340;28;19927;-56
2023/07/13 08:57:13;;;;;;;;;;;;;;;34.53;45.10;101478.69;5103396;28;19977;-52
2023/07/13 08:59:39;;;;;;;;;;;;;;;33.77;47.69;101481.53;5096308;28;19917;-55
2023/07/13 09:02:16;;;;;;;;;;;;;;;34.55;47.03;101479.16;5096258;28;19916;-56
2023/07/13 09:05:04;;;;;;;;;;;;;;;34.26;47.33;101475.38;5085542;28;19921;-52
2023/07/13 09:07:40;;;;;;;;;;;;;;;34.44;47.07;101474.03;5102065;28;19972;-54
2023/07/13 09:10:13;;;;;;;;;;;;;;;34.09;47.74;101482.72;5096741;28;19917;-53
2023/07/13 09:12:51;;;;;;;;;;;;;;;33.67;52.58;101486.34;5096680;28;19923;-54
2023/07/13 09:15:22;;;;;;;;;;;;;;;31.67;99.14;101479.19;5096480;28;19951;-53
2023/07/13 09:17:50;;;;;;;;;;;;;;;34.28;69.57;101479.44;5102330;28;19987;-57
2023/07/13 09:20:25;;;;;;;;;;;;;;;34.03;63.71;101484.94;5105654;28;19916;-56
2023/07/13 09:22:52;;;;;;;;;;;;;;;34.12;64.55;101478.47;5096799;28;19917;-56
2023/07/13 09:25:30;;;;;;;;;;;;;;;34.22;59.95;101483.56;5096166;28;19988;-57
2023/07/13 09:27:58;;;;;;;;;;;;;;;35.40;59.49;101487.81;5096197;28;19981;-55
2023/07/13 09:30:37;;;;;;;;;;;;;;;35.63;58.81;101486.50;5096098;28;19943;-58
2023/07/13 09:33:04;;;;;;;;;;;;;;;36.49;58.22;101479.69;5096569;28;19944;-56
2023/07/13 09:35:29;;;;;;;;;;;;;;;35.53;59.26;101471.97;5083683;28;19923;-55
2023/07/13 09:38:18;;;;;;;;;;;;;;;35.32;59.79;101463.75;5104601;28;19950;-54
2023/07/13 09:40:44;;;;;;;;;;;;;;;34.95;59.65;101464.59;5090891;28;19920;-54
2023/07/13 09:43:13;;;;;;;;;;;;;;;34.30;60.45;101479.09;5096067;28;19924;-51
2023/07/13 09:45:39;;;;;;;;;;;;;;;33.22;59.92;101462.84;5096326;28;19916;-53
2023/07/13 09:48:06;;;;;;;;;;;;;;;35.26;58.23;101463.16;5101754;28;19991;-54
2023/07/13 09:50:31;;;;;;;;;;;;;;;34.47;55.47;101466.97;5096094;28;19916;-52
2023/07/13 09:52:58;;;;;;;;;;;;;;;34.00;52.85;101490.34;5095337;28;19948;-52
2023/07/13 09:55:35;;;;;;;;;;;;;;;32.83;56.65;101478.69;5095650;28;19921;-54
2023/07/13 09:58:22;;;;;;;;;;;;;;;35.39;53.35;101471.50;5097489;28;19943;-53
2023/07/13 10:01:04;;;;;;;;;;;;;;;33.43;54.32;101473.16;5095856;28;19927;-54
2023/07/13 10:03:36;;;;;;;;;;;;;;;35.62;49.67;101482.13;5095687;28;19920;-54
2023/07/13 10:06:10;;;;;;;;;;;;;;;34.53;47.81;101489.78;5095644;28;19951;-54
2023/07/13 10:08:36;;;;;;;;;;;;;;;36.08;44.18;101495.72;5099881;28;19917;-56
2023/07/13 10:11:09;;;;;;;;;;;;;;;36.84;43.80;101504.09;5101501;28;19920;-52
2023/07/13 10:13:36;;;;;;;;;;;;;;;35.80;43.42;101504.88;5095374;28;19956;-51
2023/07/13 10:16:05;;;;;;;;;;;;;;;35.71;43.28;101502.22;5095600;28;19923;-55
2023/07/13 10:18:36;;;;;;;;;;;;;;;36.24;43.33;101515.25;5107725;28;19923;-52
2023/07/13 10:21:11;;;;;;;;;;;;;;;37.78;39.90;101519.31;5095519;28;19917;-53
2023/07/13 10:23:36;;;;;;;;;;;;;;;37.39;37.94;101530.44;5076463;28;19929;-53
2023/07/13 10:26:03;;;;;;;;;;;;;;;39.06;38.03;101528.00;5098711;28;19927;-54
2023/07/13 10:28:35;;;;;;;;;;;;;;;39.71;34.99;101534.50;5101875;28;19951;-53
2023/07/13 10:31:02;;;;;;;;;;;;;;;40.63;34.23;101534.28;5095867;28;19923;-55
2023/07/13 10:33:28;;;;;;;;;;;;;;;40.22;34.16;101527.47;5095156;28;19996;-53
2023/07/13 10:36:01;;;;;;;;;;;;;;;41.33;32.98;101528.00;5095342;28;19946;-54
2023/07/13 10:38:28;;;;;;;;;;;;;;;38.39;33.98;101547.63;5098437;28;19978;-51
2023/07/13 10:41:01;;;;;;;;;;;;;;;36.40;37.71;101527.22;5094856;28;19921;-53
2023/07/13 10:43:29;;;;;;;;;;;;;;;37.49;36.25;101521.53;5094588;28;19924;-54
2023/07/13 10:45:55;;;;;;;;;;;;;;;38.39;34.49;101535.63;5094937;28;19916;-53
2023/07/13 10:48:22;;;;;;;;;;;;;;;39.08;33.24;101539.63;5095727;28;19920;-55
2023/07/13 10:50:50;;;;;;;;;;;;;;;38.34;32.79;101541.53;5094556;28;19952;-53
2023/07/13 10:53:29;;;;;;;;;;;;;;;41.68;30.54;101537.78;5081219;28;19923;-53
2023/07/13 10:55:59;;;;;;;;;;;;;;;41.37;29.66;101540.03;5093594;28;19926;-53
2023/07/13 10:58:35;;;;;;;;;;;;;;;41.80;28.51;101548.66;5101596;28;19943;-53
2023/07/13 11:01:07;;;;;;;;;;;;;;;44.32;26.78;101547.88;5096426;28;19912;-55
2023/07/13 11:03:35;;;;;;;;;;;;;;;43.13;27.52;101564.06;5094660;28;19989;-51
2023/07/13 11:06:29;;;;;;;;;;;;;;;42.77;28.13;101543.59;5094093;28;19920;-55
2023/07/13 11:09:00;;;;;;;;;;;;;;;45.11;26.05;101546.38;5103711;28;19924;-54
2023/07/13 11:11:29;;;;;;;;;;;;;;;43.92;26.36;101550.91;5094638;28;19951;-54
2023/07/13 11:13:57;;;;;;;;;;;;;;;42.98;27.35;101552.03;5094459;28;19916;-55
2023/07/13 11:16:26;;;;;;;;;;;;;;;42.08;28.57;101552.78;5093861;28;21329;-55
2023/07/13 11:18:52;;;;;;;;;;;;;;;41.21;33.58;101549.56;5102175;28;19916;-54
2023/07/13 11:21:19;;;;;;;;;;;;;;;39.20;73.35;101556.16;5094384;28;19979;-59
2023/07/13 11:23:51;;;;;;;;;;;;;;;42.06;53.53;101554.34;5094414;28;19992;-56
2023/07/13 11:26:36;;;;;;;;;;;;;;;44.82;45.27;101555.09;5094369;28;19980;-57
2023/07/13 11:29:07;;;;;;;;;;;;;;;42.26;45.67;101549.19;5099781;28;19923;-58
2023/07/13 11:31:34;;;;;;;;;;;;;;;41.30;47.58;101542.81;5094218;28;19939;-59
2023/07/13 11:34:00;;;;;;;;;;;;;;;40.71;49.49;101547.16;5094577;28;19959;-59
2023/07/13 11:36:31;;;;;;;;;;;;;;;39.92;48.46;101544.38;5094378;28;19923;-59
2023/07/13 11:38:57;;;;;;;;;;;;;;;41.84;47.41;101541.06;5094558;28;19917;-60
2023/07/13 11:41:26;;;;;;;;;;;;;;;42.94;46.06;101553.25;5101853;28;19923;-57
2023/07/13 11:44:02;;;;;;;;;;;;;;;41.75;46.49;101548.22;5094532;28;19984;-55
2023/07/13 11:46:28;;;;;;;;;;;;;;;43.18;41.86;101556.41;5094207;28;20366;-57
2023/07/13 11:48:54;;;;;;;;;;;;;;;42.33;44.99;101557.63;5094551;28;19920;-56
2023/07/13 11:51:26;;;;;;;;;;;;;;;41.12;42.09;101551.88;5094077;28;19922;-54
2023/07/13 11:53:53;;;;;;;;;;;;;;;41.64;42.54;101551.81;5094297;28;19904;-55
2023/07/13 11:56:19;;;;;;;;;;;;;;;44.21;36.83;101549.97;5094014;28;19916;-55
2023/07/13 11:58:49;;;;;;;;;;;;;;;44.03;34.29;101548.03;5093751;28;19997;-53
2023/07/13 12:01:18;;;;;;;;;;;;;;;43.27;36.94;101554.78;5092801;28;19916;-54
2023/07/13 12:03:46;;;;;;;;;;;;;;;42.70;36.66;101550.03;5093344;28;20007;-55
2023/07/13 12:06:23;;;;;;;;;;;;;;;42.39;34.40;101543.97;5093532;28;19917;-52
2023/07/13 12:08:49;;;;;;;;;;;;;;;41.11;34.86;101531.44;5100113;28;19916;-55
2023/07/13 12:11:16;;;;;;;;;;;;;;;41.21;33.56;101552.38;5094047;28;19924;-54
2023/07/13 12:13:44;;;;;;;;;;;;;;;41.04;33.73;101547.41;5093862;28;19956;-55
2023/07/13 12:16:15;;;;;;;;;;;;;;;44.78;30.89;101550.72;5094000;28;19916;-52
2023/07/13 12:18:44;;;;;;;;;;;;;;;44.15;29.64;101543.16;5102123;28;19920;-55
2023/07/13 12:21:13;;;;;;;;;;;;;;;43.54;28.69;101559.94;5097809;28;19936;-54
2023/07/13 12:23:38;;;;;;;;;;;;;;;45.04;25.78;101556.94;5097633;28;19976;-57
2023/07/13 12:26:05;;;;;;;;;;;;;;;45.22;26.54;101551.09;5097637;28;19920;-52
2023/07/13 12:28:38;;;;;;;;;;;;;;;43.13;25.89;101560.44;5098839;28;19916;-50
2023/07/13 12:31:19;;;;;;;;;;;;;;;42.92;27.18;101556.47;5097651;28;19920;-53
2023/07/13 12:33:44;;;;;;;;;;;;;;;42.45;25.81;101566.91;5079756;28;19921;-54
2023/07/13 12:36:12;;;;;;;;;;;;;;;44.67;23.90;101545.97;5095607;28;19916;-54